createdAt,value
2019-05-19T00:00:00.928Z,95418.27
2019-05-19T00:01:10.270Z,95413.53
2019-05-19T00:02:17.542Z,95413.53
2019-05-19T00:03:25.506Z,95411.73
2019-05-19T00:04:32.723Z,95412.06
2019-05-19T00:05:40.705Z,95416.80
2019-05-19T00:06:47.934Z,95411.58
2019-05-19T00:07:55.893Z,95413.37
2019-05-19T00:09:03.296Z,95412.06
2019-05-19T00:10:12.147Z,95403.41
2019-05-19T00:11:19.443Z,95413.53
2019-05-19T00:12:27.419Z,95411.58
2019-05-19T00:13:34.617Z,95413.54
2019-05-19T00:14:42.547Z,95408.97
2019-05-19T00:15:49.756Z,95413.05
2019-05-19T00:16:57.705Z,95414.55
2019-05-19T00:18:05.004Z,95417.66
2019-05-19T00:19:25.872Z,95411.45
2019-05-19T00:20:21.959Z,95412.77
2019-05-19T00:21:29.921Z,95413.58
2019-05-19T00:22:38.335Z,95413.37
2019-05-19T00:23:46.306Z,95417.13
2019-05-19T00:24:53.532Z,95415.66
2019-05-19T00:26:02.983Z,95409.95
2019-05-19T00:27:10.372Z,95410.27
2019-05-19T00:28:18.332Z,95413.37
2019-05-19T00:29:25.602Z,95411.25
2019-05-19T00:30:33.742Z,95414.19
2019-05-19T00:31:41.228Z,95414.68
2019-05-19T00:32:49.336Z,95405.22
2019-05-19T00:33:56.574Z,95406.84
2019-05-19T00:35:04.694Z,95406.52
2019-05-19T00:36:11.912Z,95404.41
2019-05-19T00:37:19.874Z,95409.62
2019-05-19T00:38:27.068Z,95407.02
2019-05-19T00:39:35.052Z,95404.08
2019-05-19T00:40:42.269Z,95401.47
2019-05-19T00:41:50.305Z,95402.94
2019-05-19T00:42:57.517Z,95404.93
2019-05-19T00:44:05.760Z,95404.60
2019-05-19T00:45:14.771Z,95407.22
2019-05-19T00:46:22.732Z,95404.11
2019-05-19T00:47:29.971Z,95400.85
2019-05-19T00:48:37.919Z,95397.91
2019-05-19T00:49:45.129Z,95396.44
2019-05-19T00:50:53.093Z,95399.87
2019-05-19T00:52:00.301Z,95394.65
2019-05-19T00:53:08.454Z,95400.52
2019-05-19T00:54:15.728Z,95393.47
2019-05-19T00:55:24.078Z,95397.71
2019-05-19T00:56:31.842Z,95395.75
2019-05-19T00:57:40.719Z,95396.56
2019-05-19T00:58:49.323Z,95397.22
2019-05-19T00:59:58.370Z,95397.70
2019-05-19T01:01:05.695Z,95396.23
2019-05-19T01:02:14.752Z,95392.31
2019-05-19T01:03:23.420Z,95396.56
2019-05-19T01:04:31.367Z,95390.84
2019-05-19T01:05:38.618Z,95398.19
2019-05-19T01:06:46.896Z,95389.86
2019-05-19T01:07:55.082Z,95388.88
2019-05-19T01:09:03.099Z,95388.39
2019-05-19T01:10:11.000Z,95390.84
2019-05-19T01:11:19.920Z,95393.45
2019-05-19T01:12:27.131Z,95385.61
2019-05-19T01:13:35.093Z,95381.70
2019-05-19T01:14:42.331Z,95382.19
2019-05-19T01:15:50.277Z,95376.15
2019-05-19T01:16:57.493Z,95370.60
2019-05-19T01:18:05.479Z,95376.48
2019-05-19T01:19:12.705Z,95375.83
2019-05-19T01:20:21.778Z,95376.00
2019-05-19T01:21:29.301Z,95378.29
2019-05-19T01:22:37.262Z,95384.66
2019-05-19T01:23:44.532Z,95380.41
2019-05-19T01:24:52.507Z,95383.22
2019-05-19T01:25:59.748Z,95382.24
2019-05-19T01:27:07.708Z,95383.72
2019-05-19T01:28:14.978Z,95377.51
2019-05-19T01:29:22.939Z,95380.73
2019-05-19T01:30:30.164Z,95375.19
2019-05-19T01:31:38.140Z,95372.58
2019-05-19T01:32:45.366Z,95372.41
2019-05-19T01:33:53.342Z,95373.40
2019-05-19T01:35:00.552Z,95369.97
2019-05-19T01:36:08.532Z,95375.19
2019-05-19T01:37:15.738Z,95374.08
2019-05-19T01:38:23.699Z,95373.27
2019-05-19T01:39:32.823Z,95379.47
2019-05-19T01:40:40.748Z,95375.23
2019-05-19T01:41:47.976Z,95377.02
2019-05-19T01:42:56.052Z,95374.91
2019-05-19T01:44:03.263Z,95378.50
2019-05-19T01:45:12.115Z,95372.30
2019-05-19T01:46:19.351Z,95367.73
2019-05-19T01:47:27.314Z,95366.09
2019-05-19T01:48:34.519Z,95371.00
2019-05-19T01:49:42.482Z,95367.25
2019-05-19T01:50:49.679Z,95365.62
2019-05-19T01:51:57.656Z,95360.06
2019-05-19T01:53:04.868Z,95365.81
2019-05-19T01:54:12.808Z,95363.05
2019-05-19T01:55:20.635Z,95364.52
2019-05-19T01:56:28.583Z,95370.22
2019-05-19T01:57:35.790Z,95369.08
2019-05-19T01:58:43.782Z,95367.78
2019-05-19T01:59:51.001Z,95373.48
2019-05-19T02:00:58.940Z,95370.88
2019-05-19T02:02:06.313Z,95370.88
2019-05-19T02:03:14.274Z,95369.08
2019-05-19T02:04:21.499Z,95371.70
2019-05-19T02:05:29.959Z,95370.39
2019-05-19T02:06:37.180Z,95373.00
2019-05-19T02:07:45.156Z,95366.15
2019-05-19T02:08:52.401Z,95367.45
2019-05-19T02:10:00.359Z,95370.06
2019-05-19T02:11:07.627Z,95376.59
2019-05-19T02:12:15.559Z,95370.23
2019-05-19T02:13:23.925Z,95371.05
2019-05-19T02:14:31.901Z,95369.91
2019-05-19T02:15:39.140Z,95371.38
2019-05-19T02:16:47.104Z,95375.78
2019-05-19T02:17:54.342Z,95374.47
2019-05-19T02:19:02.321Z,95375.48
2019-05-19T02:20:10.432Z,95374.67
2019-05-19T02:21:18.404Z,95376.63
2019-05-19T02:22:25.616Z,95378.42
2019-05-19T02:23:33.559Z,95373.05
2019-05-19T02:24:40.804Z,95375.33
2019-05-19T02:25:48.763Z,95373.70
2019-05-19T02:26:55.988Z,95375.16
2019-05-19T02:28:03.974Z,95373.20
2019-05-19T02:29:11.159Z,95374.70
2019-05-19T02:30:19.539Z,95372.75
2019-05-19T02:31:27.824Z,95363.45
2019-05-19T02:32:35.805Z,95364.92
2019-05-19T02:33:43.045Z,95361.66
2019-05-19T02:34:51.967Z,95364.77
2019-05-19T02:35:59.177Z,95367.53
2019-05-19T02:37:07.139Z,95370.63
2019-05-19T02:38:14.375Z,95369.20
2019-05-19T02:39:22.317Z,95372.78
2019-05-19T02:40:32.117Z,95375.03
2019-05-19T02:41:43.178Z,95372.09
2019-05-19T02:42:53.196Z,95370.63
2019-05-19T02:44:04.028Z,95371.94
2019-05-19T02:45:12.155Z,95375.20
2019-05-19T02:46:21.651Z,95368.21
2019-05-19T02:47:30.141Z,95369.35
2019-05-19T02:48:40.820Z,95372.45
2019-05-19T02:49:49.784Z,95373.59
2019-05-19T02:51:00.053Z,95368.40
2019-05-19T02:52:07.658Z,95375.57
2019-05-19T02:53:16.411Z,95372.47
2019-05-19T02:54:24.220Z,95373.11
2019-05-19T02:55:33.389Z,95370.67
2019-05-19T02:56:42.304Z,95372.63
2019-05-19T02:57:52.635Z,95366.78
2019-05-19T02:59:01.749Z,95367.10
2019-05-19T03:00:10.697Z,95366.94
2019-05-19T03:01:17.935Z,95362.53
2019-05-19T03:02:25.903Z,95364.00
2019-05-19T03:03:33.127Z,95356.86
2019-05-19T03:04:41.110Z,95359.30
2019-05-19T03:05:48.347Z,95366.78
2019-05-19T03:06:56.319Z,95365.31
2019-05-19T03:08:03.548Z,95362.87
2019-05-19T03:09:11.525Z,95366.45
2019-05-19T03:10:18.851Z,95367.58
2019-05-19T03:11:26.813Z,95369.08
2019-05-19T03:12:34.036Z,95366.63
2019-05-19T03:13:41.985Z,95366.79
2019-05-19T03:14:49.195Z,95370.20
2019-05-19T03:15:57.218Z,95373.45
2019-05-19T03:17:04.454Z,95374.09
2019-05-19T03:18:13.512Z,95373.14
2019-05-19T03:19:20.738Z,95370.36
2019-05-19T03:20:28.699Z,95371.34
2019-05-19T03:21:35.924Z,95375.08
2019-05-19T03:22:44.989Z,95374.42
2019-05-19T03:23:52.174Z,95375.25
2019-05-19T03:25:00.143Z,95374.10
2019-05-19T03:26:07.368Z,95374.72
2019-05-19T03:27:15.314Z,95374.06
2019-05-19T03:28:22.535Z,95381.06
2019-05-19T03:29:37.694Z,95374.70
2019-05-19T03:31:09.885Z,95371.44
2019-05-19T03:32:31.793Z,95378.59
2019-05-19T03:33:41.602Z,95377.13
2019-05-19T03:34:48.806Z,95367.52
2019-05-19T03:35:57.856Z,95370.11
2019-05-19T03:37:05.069Z,95370.78
2019-05-19T03:38:13.012Z,95370.45
2019-05-19T03:39:21.301Z,95373.05
2019-05-19T03:40:29.277Z,95371.75
2019-05-19T03:41:36.473Z,95375.17
2019-05-19T03:42:44.429Z,95371.75
2019-05-19T03:43:51.628Z,95373.05
2019-05-19T03:44:59.604Z,95369.14
2019-05-19T03:46:06.867Z,95374.35
2019-05-19T03:47:14.835Z,95370.11
2019-05-19T03:48:22.067Z,95374.84
2019-05-19T03:49:30.024Z,95371.42
2019-05-19T03:50:37.270Z,95376.63
2019-05-19T03:51:45.209Z,95371.91
2019-05-19T03:52:52.434Z,95373.20
2019-05-19T03:54:00.365Z,95372.72
2019-05-19T03:55:07.905Z,95368.97
2019-05-19T03:56:17.036Z,95376.63
2019-05-19T03:57:24.261Z,95378.90
2019-05-19T03:58:32.223Z,95370.27
2019-05-19T03:59:39.463Z,95375.97
2019-05-19T04:00:47.425Z,95374.66
2019-05-19T04:01:54.624Z,95378.90
2019-05-19T04:03:02.594Z,95374.66
2019-05-19T04:04:09.790Z,95375.67
2019-05-19T04:05:17.766Z,95376.97
2019-05-19T04:06:24.962Z,95380.55
2019-05-19T04:07:32.921Z,95376.97
2019-05-19T04:08:40.163Z,95373.55
2019-05-19T04:09:48.138Z,95376.64
2019-05-19T04:10:55.386Z,95374.03
2019-05-19T04:12:03.326Z,95377.94
2019-05-19T04:13:10.537Z,95380.55
2019-05-19T04:14:18.512Z,95384.45
2019-05-19T04:15:25.752Z,95387.54
2019-05-19T04:16:33.719Z,95383.30
2019-05-19T04:17:40.935Z,95390.97
2019-05-19T04:18:48.892Z,95385.42
2019-05-19T04:19:56.079Z,95388.52
2019-05-19T04:21:04.059Z,95389.33
2019-05-19T04:22:11.256Z,95385.91
2019-05-19T04:23:22.094Z,95388.84
2019-05-19T04:24:28.106Z,95389.81
2019-05-19T04:25:36.080Z,95392.42
2019-05-19T04:26:43.304Z,95389.00
2019-05-19T04:27:51.285Z,95387.70
2019-05-19T04:28:58.491Z,95389.00
2019-05-19T04:30:07.551Z,95386.06
2019-05-19T04:31:14.762Z,95388.67
2019-05-19T04:32:23.817Z,95382.64
2019-05-19T04:33:31.028Z,95387.03
2019-05-19T04:34:38.977Z,95384.43
2019-05-19T04:35:46.171Z,95382.64
2019-05-19T04:36:54.121Z,95383.79
2019-05-19T04:38:01.360Z,95382.00
2019-05-19T04:39:10.142Z,95381.19
2019-05-19T04:40:17.627Z,95382.33
2019-05-19T04:41:25.586Z,95386.73
2019-05-19T04:42:32.798Z,95389.66
2019-05-19T04:43:40.788Z,95389.17
2019-05-19T04:44:48.014Z,95385.27
2019-05-19T04:45:56.014Z,95390.14
2019-05-19T04:47:03.250Z,95388.69
2019-05-19T04:48:12.272Z,95394.20
2019-05-19T04:49:19.497Z,95391.30
2019-05-19T04:50:27.463Z,95387.39
2019-05-19T04:51:34.687Z,95386.38
2019-05-19T04:52:42.680Z,95382.18
2019-05-19T04:53:49.903Z,95385.08
2019-05-19T04:54:57.870Z,95385.89
2019-05-19T04:56:05.079Z,95384.11
2019-05-19T04:57:13.033Z,95386.23
2019-05-19T04:58:20.225Z,95385.74
2019-05-19T04:59:28.181Z,95390.47
2019-05-19T05:00:35.416Z,95392.42
2019-05-19T05:01:43.380Z,95392.42
2019-05-19T05:02:50.605Z,95393.24
2019-05-19T05:03:58.566Z,95389.01
2019-05-19T05:05:06.049Z,95394.06
2019-05-19T05:06:14.051Z,95395.03
2019-05-19T05:07:21.237Z,95388.36
2019-05-19T05:08:30.867Z,95390.00
2019-05-19T05:09:38.179Z,95387.88
2019-05-19T05:10:46.173Z,95389.18
2019-05-19T05:11:53.394Z,95390.00
2019-05-19T05:13:01.345Z,95386.42
2019-05-19T05:14:08.565Z,95394.56
2019-05-19T05:15:16.918Z,95393.75
2019-05-19T05:16:24.145Z,95385.45
2019-05-19T05:17:32.102Z,95389.20
2019-05-19T05:18:39.300Z,95392.63
2019-05-19T05:19:47.250Z,95387.71
2019-05-19T05:20:54.486Z,95385.77
2019-05-19T05:22:02.479Z,95386.09
2019-05-19T05:23:09.707Z,95390.17
2019-05-19T05:24:17.697Z,95388.88
2019-05-19T05:25:24.942Z,95379.27
2019-05-19T05:26:32.909Z,95385.62
2019-05-19T05:27:40.137Z,95383.02
2019-05-19T05:28:48.119Z,95385.14
2019-05-19T05:29:55.340Z,95391.65
2019-05-19T05:31:03.302Z,95392.83
2019-05-19T05:32:10.512Z,95387.95
2019-05-19T05:33:18.474Z,95387.46
2019-05-19T05:34:25.686Z,95386.97
2019-05-19T05:35:33.689Z,95380.76
2019-05-19T05:36:40.902Z,95378.97
2019-05-19T05:37:50.048Z,95379.14
2019-05-19T05:38:57.305Z,95387.28
2019-05-19T05:40:05.834Z,95386.80
2019-05-19T05:41:13.075Z,95381.59
2019-05-19T05:42:21.027Z,95388.59
2019-05-19T05:43:28.502Z,95382.56
2019-05-19T05:44:36.472Z,95387.62
2019-05-19T05:45:43.697Z,95390.06
2019-05-19T05:46:51.638Z,95385.18
2019-05-19T05:47:58.847Z,95387.30
2019-05-19T05:49:06.794Z,95381.11
2019-05-19T05:50:14.217Z,95376.23
2019-05-19T05:51:22.177Z,95377.05
2019-05-19T05:52:38.204Z,95377.38
2019-05-19T05:53:39.057Z,95375.88
2019-05-19T05:54:46.268Z,95384.52
2019-05-19T05:55:54.237Z,95383.55
2019-05-19T05:57:01.448Z,95379.97
2019-05-19T05:58:09.417Z,95381.92
2019-05-19T05:59:16.644Z,95383.89
2019-05-19T06:00:24.679Z,95380.31
2019-05-19T06:01:31.891Z,95383.57
2019-05-19T06:02:39.836Z,95381.78
2019-05-19T06:03:47.062Z,95388.14
2019-05-19T06:04:55.023Z,95382.92
2019-05-19T06:06:02.264Z,95386.16
2019-05-19T06:07:10.210Z,95386.81
2019-05-19T06:08:17.423Z,95389.27
2019-05-19T06:09:25.396Z,95388.13
2019-05-19T06:10:32.640Z,95387.97
2019-05-19T06:11:40.633Z,95390.75
2019-05-19T06:12:47.851Z,95387.46
2019-05-19T06:13:55.819Z,95391.05
2019-05-19T06:15:03.136Z,95386.16
2019-05-19T06:16:11.367Z,95385.52
2019-05-19T06:17:18.608Z,95388.45
2019-05-19T06:18:26.572Z,95389.11
2019-05-19T06:19:33.793Z,95392.38
2019-05-19T06:20:41.754Z,95383.54
2019-05-19T06:21:48.970Z,95385.17
2019-05-19T06:22:57.358Z,95388.44
2019-05-19T06:24:04.668Z,95394.80
2019-05-19T06:25:12.766Z,95391.05
2019-05-19T06:26:20.008Z,95392.68
2019-05-19T06:27:27.977Z,95396.77
2019-05-19T06:28:35.236Z,95396.41
2019-05-19T06:29:43.223Z,95394.94
2019-05-19T06:30:50.480Z,95395.59
2019-05-19T06:32:02.133Z,95392.34
2019-05-19T06:33:09.436Z,95394.30
2019-05-19T06:34:17.400Z,95392.02
2019-05-19T06:35:25.130Z,95393.97
2019-05-19T06:36:33.198Z,95388.08
2019-05-19T06:37:40.467Z,95391.66
2019-05-19T06:38:48.477Z,95392.31
2019-05-19T06:39:55.685Z,95390.36
2019-05-19T06:41:03.692Z,95394.95
2019-05-19T06:42:12.122Z,95389.58
2019-05-19T06:43:20.139Z,95392.81
2019-05-19T06:44:27.386Z,95388.73
2019-05-19T06:45:36.370Z,95388.57
2019-05-19T06:46:43.650Z,95387.92
2019-05-19T06:47:51.642Z,95390.69
2019-05-19T06:48:58.882Z,95391.34
2019-05-19T06:50:08.735Z,95385.44
2019-05-19T06:51:16.022Z,95386.58
2019-05-19T06:52:23.996Z,95385.44
2019-05-19T06:53:31.220Z,95386.91
2019-05-19T06:54:39.215Z,95388.05
2019-05-19T06:55:46.471Z,95389.02
2019-05-19T06:56:54.448Z,95380.02
2019-05-19T06:58:01.737Z,95385.73
2019-05-19T06:59:09.706Z,95382.95
2019-05-19T07:00:18.212Z,95383.60
2019-05-19T07:01:26.172Z,95385.06
2019-05-19T07:02:33.414Z,95384.22
2019-05-19T07:03:41.392Z,95380.63
2019-05-19T07:04:48.646Z,95380.30
2019-05-19T07:05:56.640Z,95383.39
2019-05-19T07:07:04.111Z,95382.41
2019-05-19T07:08:12.078Z,95384.16
2019-05-19T07:09:19.363Z,95388.24
2019-05-19T07:10:27.337Z,95383.99
2019-05-19T07:11:34.604Z,95388.23
2019-05-19T07:12:42.562Z,95381.33
2019-05-19T07:13:49.809Z,95381.00
2019-05-19T07:14:57.792Z,95379.84
2019-05-19T07:16:06.121Z,95380.50
2019-05-19T07:17:14.125Z,95379.02
2019-05-19T07:18:21.348Z,95379.14
2019-05-19T07:19:29.335Z,95379.47
2019-05-19T07:20:36.590Z,95376.20
2019-05-19T07:21:44.569Z,95378.97
2019-05-19T07:22:51.811Z,95381.91
2019-05-19T07:23:59.783Z,95377.84
2019-05-19T07:25:07.959Z,95376.05
2019-05-19T07:26:15.961Z,95372.45
2019-05-19T07:27:23.190Z,95370.16
2019-05-19T07:28:32.246Z,95367.84
2019-05-19T07:29:39.500Z,95366.86
2019-05-19T07:30:47.493Z,95370.44
2019-05-19T07:31:54.736Z,95364.06
2019-05-19T07:33:02.725Z,95366.34
2019-05-19T07:34:09.964Z,95369.40
2019-05-19T07:35:17.911Z,95372.16
2019-05-19T07:36:25.123Z,95374.27
2019-05-19T07:37:33.178Z,95365.27
2019-05-19T07:38:40.385Z,95373.06
2019-05-19T07:39:48.361Z,95364.23
2019-05-19T07:40:55.574Z,95368.14
2019-05-19T07:42:04.660Z,95367.47
2019-05-19T07:43:11.889Z,95369.42
2019-05-19T07:44:19.845Z,95366.61
2019-05-19T07:45:27.073Z,95365.28
2019-05-19T07:46:35.109Z,95369.03
2019-05-19T07:47:42.334Z,95369.50
2019-05-19T07:48:50.296Z,95362.91
2019-05-19T07:49:57.537Z,95368.94
2019-05-19T07:51:05.487Z,95355.02
2019-05-19T07:52:12.696Z,95365.14
2019-05-19T07:53:20.672Z,95359.21
2019-05-19T07:54:27.911Z,95359.53
2019-05-19T07:55:35.846Z,95354.77
2019-05-19T07:56:43.114Z,95358.52
2019-05-19T07:57:51.081Z,95359.48
2019-05-19T07:58:58.317Z,95357.19
2019-05-19T08:00:07.077Z,95357.30
2019-05-19T08:01:15.319Z,95349.13
2019-05-19T08:02:23.295Z,95357.45
2019-05-19T08:03:30.506Z,95355.47
2019-05-19T08:04:38.516Z,95355.41
2019-05-19T08:05:45.740Z,95352.94
2019-05-19T08:06:53.761Z,95355.03
2019-05-19T08:08:00.989Z,95354.19
2019-05-19T08:09:08.964Z,95353.63
2019-05-19T08:10:17.110Z,95358.20
2019-05-19T08:11:25.077Z,95360.95
2019-05-19T08:12:32.367Z,95354.88
2019-05-19T08:13:40.342Z,95358.42
2019-05-19T08:14:47.570Z,95352.02
2019-05-19T08:15:55.547Z,95358.21
2019-05-19T08:17:02.760Z,95357.04
2019-05-19T08:18:10.721Z,95360.27
2019-05-19T08:19:17.921Z,95357.79
2019-05-19T08:20:25.900Z,95357.44
2019-05-19T08:21:33.191Z,95352.34
2019-05-19T08:22:41.185Z,95351.98
2019-05-19T08:24:01.562Z,95351.59
2019-05-19T08:24:58.038Z,95352.06
2019-05-19T08:26:05.471Z,95349.40
2019-05-19T08:27:13.453Z,95349.54
2019-05-19T08:28:20.659Z,95353.08
2019-05-19T08:29:28.619Z,95350.10
2019-05-19T08:30:35.832Z,95355.02
2019-05-19T08:31:43.791Z,95348.92
2019-05-19T08:32:51.139Z,95351.15
2019-05-19T08:33:59.256Z,95351.11
2019-05-19T08:35:06.657Z,95354.19
2019-05-19T08:36:14.772Z,95348.87
2019-05-19T08:37:21.995Z,95345.21
2019-05-19T08:38:29.939Z,95348.28
2019-05-19T08:39:37.148Z,95349.02
2019-05-19T08:40:45.127Z,95344.72
2019-05-19T08:41:52.384Z,95346.30
2019-05-19T08:43:00.394Z,95343.61
2019-05-19T08:44:07.601Z,95344.87
2019-05-19T08:45:16.146Z,95336.95
2019-05-19T08:46:23.385Z,95339.62
2019-05-19T08:47:31.364Z,95342.70
2019-05-19T08:48:38.561Z,95336.27
2019-05-19T08:49:46.609Z,95337.00
2019-05-19T08:50:53.819Z,95335.82
2019-05-19T08:52:02.547Z,95338.89
2019-05-19T08:53:09.787Z,95339.86
2019-05-19T08:54:19.032Z,95334.22
2019-05-19T08:55:26.472Z,95334.98
2019-05-19T08:56:34.434Z,95336.55
2019-05-19T08:57:41.660Z,95336.14
2019-05-19T08:58:49.625Z,95336.90
2019-05-19T08:59:56.848Z,95339.47
2019-05-19T09:01:04.810Z,95338.56
2019-05-19T09:02:12.068Z,95339.31
2019-05-19T09:03:20.087Z,95340.07
2019-05-19T09:04:27.330Z,95337.17
2019-05-19T09:05:35.281Z,95334.67
2019-05-19T09:06:42.485Z,95332.98
2019-05-19T09:07:50.791Z,95330.30
2019-05-19T09:08:57.986Z,95326.45
2019-05-19T09:10:06.462Z,95330.32
2019-05-19T09:11:14.763Z,95321.45
2019-05-19T09:12:22.715Z,95321.88
2019-05-19T09:13:29.936Z,95322.78
2019-05-19T09:14:37.886Z,95326.03
2019-05-19T09:15:45.113Z,95332.06
2019-05-19T09:16:53.054Z,95329.88
2019-05-19T09:18:00.281Z,95330.78
2019-05-19T09:19:08.231Z,95331.71
2019-05-19T09:20:15.466Z,95329.02
2019-05-19T09:21:23.464Z,95325.20
2019-05-19T09:22:30.685Z,95326.91
2019-05-19T09:23:39.713Z,95324.41
2019-05-19T09:24:46.937Z,95327.97
2019-05-19T09:25:54.904Z,95325.27
2019-05-19T09:27:02.156Z,95323.23
2019-05-19T09:28:10.195Z,95320.53
2019-05-19T09:29:17.421Z,95320.27
2019-05-19T09:30:26.445Z,95329.86
2019-05-19T09:31:33.674Z,95325.84
2019-05-19T09:32:41.660Z,95325.77
2019-05-19T09:33:48.844Z,95327.79
2019-05-19T09:34:56.822Z,95322.95
2019-05-19T09:36:04.073Z,95321.37
2019-05-19T09:37:12.051Z,95327.34
2019-05-19T09:38:19.277Z,95328.10
2019-05-19T09:39:27.241Z,95328.02
2019-05-19T09:40:34.447Z,95323.97
2019-05-19T09:41:42.457Z,95321.56
2019-05-19T09:42:49.697Z,95320.17
2019-05-19T09:43:58.860Z,95320.36
2019-05-19T09:45:07.121Z,95319.97
2019-05-19T09:46:15.090Z,95319.27
2019-05-19T09:47:22.278Z,95316.95
2019-05-19T09:48:30.225Z,95317.06
2019-05-19T09:49:37.481Z,95321.39
2019-05-19T09:50:45.422Z,95315.74
2019-05-19T09:51:52.787Z,95319.80
2019-05-19T09:53:02.186Z,95319.09
2019-05-19T09:54:09.522Z,95315.46
2019-05-19T09:55:18.107Z,95316.55
2019-05-19T09:56:26.375Z,95316.34
2019-05-19T09:57:34.335Z,95314.84
2019-05-19T09:58:41.549Z,95316.46
2019-05-19T09:59:49.666Z,95319.20
2019-05-19T10:00:56.908Z,95321.44
2019-05-19T10:02:05.960Z,95318.38
2019-05-19T10:03:13.195Z,95314.66
2019-05-19T10:04:21.140Z,95313.58
2019-05-19T10:05:28.348Z,95317.72
2019-05-19T10:06:36.334Z,95313.98
2019-05-19T10:07:43.541Z,95310.22
2019-05-19T10:08:58.577Z,95312.86
2019-05-19T10:10:11.475Z,95314.39
2019-05-19T10:12:02.491Z,95318.52
2019-05-19T10:13:10.527Z,95312.34
2019-05-19T10:14:17.839Z,95315.69
2019-05-19T10:15:25.765Z,95310.39
2019-05-19T10:16:33.078Z,95310.91
2019-05-19T10:17:41.067Z,95308.55
2019-05-19T10:18:48.278Z,95308.05
2019-05-19T10:19:56.231Z,95301.77
2019-05-19T10:21:03.452Z,95299.23
2019-05-19T10:22:11.575Z,95304.56
2019-05-19T10:23:18.907Z,95299.76
2019-05-19T10:24:28.474Z,95297.32
2019-05-19T10:25:36.631Z,95301.88
2019-05-19T10:26:44.670Z,95300.66
2019-05-19T10:27:52.854Z,95302.85
2019-05-19T10:29:00.893Z,95301.13
2019-05-19T10:30:09.708Z,95297.87
2019-05-19T10:31:17.711Z,95296.50
2019-05-19T10:32:24.922Z,95293.85
2019-05-19T10:33:32.872Z,95292.48
2019-05-19T10:34:40.096Z,95291.23
2019-05-19T10:35:48.071Z,95289.69
2019-05-19T10:36:55.301Z,95286.99
2019-05-19T10:38:03.289Z,95283.43
2019-05-19T10:39:10.587Z,95291.23
2019-05-19T10:40:18.750Z,95284.18
2019-05-19T10:41:25.955Z,95280.91
2019-05-19T10:42:33.937Z,95279.98
2019-05-19T10:43:41.240Z,95278.24
2019-05-19T10:44:49.229Z,95282.95
2019-05-19T10:46:02.789Z,95282.06
2019-05-19T10:47:10.802Z,95281.85
2019-05-19T10:48:18.028Z,95282.80
2019-05-19T10:49:25.991Z,95283.78
2019-05-19T10:50:33.203Z,95285.28
2019-05-19T10:51:41.151Z,95289.68
2019-05-19T10:52:48.477Z,95285.88
2019-05-19T10:53:56.579Z,95283.38
2019-05-19T10:55:03.785Z,95285.98
2019-05-19T10:56:11.766Z,95279.20
2019-05-19T10:57:18.986Z,95283.04
2019-05-19T10:58:27.055Z,95280.56
2019-05-19T10:59:34.279Z,95278.86
2019-05-19T11:00:42.243Z,95275.90
2019-05-19T11:01:49.499Z,95278.45
2019-05-19T11:02:57.495Z,95274.35
2019-05-19T11:04:04.849Z,95279.03
2019-05-19T11:05:13.111Z,95278.90
2019-05-19T11:06:20.459Z,95273.69
2019-05-19T11:07:29.318Z,95272.74
2019-05-19T11:08:36.607Z,95270.95
2019-05-19T11:09:44.594Z,95276.53
2019-05-19T11:10:51.895Z,95275.51
2019-05-19T11:11:59.886Z,95274.11
2019-05-19T11:13:07.133Z,95272.23
2019-05-19T11:14:15.157Z,95273.25
2019-05-19T11:15:22.379Z,95275.68
2019-05-19T11:16:30.414Z,95271.72
2019-05-19T11:17:37.657Z,95272.27
2019-05-19T11:18:45.627Z,95269.41
2019-05-19T11:19:52.847Z,95268.67
2019-05-19T11:21:00.895Z,95268.46
2019-05-19T11:22:08.176Z,95268.53
2019-05-19T11:23:17.101Z,95267.85
2019-05-19T11:24:24.355Z,95265.14
2019-05-19T11:25:34.251Z,95265.63
2019-05-19T11:26:41.237Z,95263.16
2019-05-19T11:27:49.170Z,95262.72
2019-05-19T11:28:56.393Z,95259.59
2019-05-19T11:30:04.371Z,95261.22
2019-05-19T11:31:11.599Z,95257.77
2019-05-19T11:32:19.602Z,95263.05
2019-05-19T11:33:26.843Z,95256.66
2019-05-19T11:34:34.812Z,95261.69
2019-05-19T11:35:42.046Z,95255.00
2019-05-19T11:36:50.011Z,95255.63
2019-05-19T11:37:57.235Z,95257.98
2019-05-19T11:39:06.686Z,95257.39
2019-05-19T11:40:14.266Z,95260.04
2019-05-19T11:41:22.242Z,95258.20
2019-05-19T11:42:29.467Z,95253.20
2019-05-19T11:43:37.469Z,95257.28
2019-05-19T11:44:44.745Z,95259.48
2019-05-19T11:45:52.709Z,95256.62
2019-05-19T11:46:59.919Z,95257.17
2019-05-19T11:48:07.974Z,95250.05
2019-05-19T11:49:15.239Z,95258.57
2019-05-19T11:50:23.337Z,95255.48
2019-05-19T11:51:30.592Z,95256.36
2019-05-19T11:52:38.601Z,95255.11
2019-05-19T11:53:45.814Z,95262.87
2019-05-19T11:54:53.823Z,95252.06
2019-05-19T11:56:06.513Z,95255.88
2019-05-19T11:57:10.689Z,95255.14
2019-05-19T11:58:17.956Z,95252.27
2019-05-19T11:59:25.921Z,95252.83
2019-05-19T12:00:33.155Z,95251.87
2019-05-19T12:01:41.192Z,95252.90
2019-05-19T12:02:48.475Z,95253.93
2019-05-19T12:03:56.453Z,95255.98
2019-05-19T12:05:03.755Z,95254.45
2019-05-19T12:06:11.897Z,95256.12
2019-05-19T12:07:19.110Z,95253.84
2019-05-19T12:08:27.113Z,95255.50
2019-05-19T12:09:34.549Z,95251.38
2019-05-19T12:10:42.562Z,95246.51
2019-05-19T12:11:49.803Z,95244.80
2019-05-19T12:12:58.885Z,95247.30
2019-05-19T12:14:06.149Z,95252.44
2019-05-19T12:15:14.436Z,95246.88
2019-05-19T12:16:21.687Z,95248.56
2019-05-19T12:17:29.711Z,95241.72
2019-05-19T12:18:36.964Z,95240.97
2019-05-19T12:19:44.970Z,95242.14
2019-05-19T12:20:52.194Z,95242.23
2019-05-19T12:22:00.186Z,95244.81
2019-05-19T12:23:08.507Z,95247.14
2019-05-19T12:24:16.563Z,95247.30
2019-05-19T12:25:23.805Z,95244.09
2019-05-19T12:26:34.684Z,95249.57
2019-05-19T12:27:41.073Z,95246.27
2019-05-19T12:28:49.096Z,95239.75
2019-05-19T12:29:56.348Z,95247.28
2019-05-19T12:31:04.404Z,95239.95
2019-05-19T12:32:11.678Z,95242.95
2019-05-19T12:33:19.695Z,95241.98
2019-05-19T12:34:26.963Z,95241.19
2019-05-19T12:35:34.980Z,95245.45
2019-05-19T12:36:42.313Z,95239.06
2019-05-19T12:37:51.357Z,95240.59
2019-05-19T12:38:58.694Z,95238.86
2019-05-19T12:40:07.239Z,95236.87
2019-05-19T12:41:14.647Z,95237.85
2019-05-19T12:42:22.672Z,95235.37
2019-05-19T12:43:29.979Z,95234.02
2019-05-19T12:44:37.971Z,95231.66
2019-05-19T12:45:45.247Z,95237.50
2019-05-19T12:46:53.220Z,95229.61
2019-05-19T12:48:00.491Z,95230.24
2019-05-19T12:49:08.454Z,95232.46
2019-05-19T12:50:17.310Z,95227.56
2019-05-19T12:51:26.935Z,95221.30
2019-05-19T12:52:34.484Z,95224.64
2019-05-19T12:53:42.460Z,95227.38
2019-05-19T12:54:49.667Z,95222.41
2019-05-19T12:55:57.701Z,95221.22
2019-05-19T12:57:04.960Z,95219.74
2019-05-19T12:58:12.951Z,95212.75
2019-05-19T12:59:20.182Z,95208.13
2019-05-19T13:00:28.240Z,95209.34
2019-05-19T13:01:35.544Z,95204.19
2019-05-19T13:02:43.535Z,95198.76
2019-05-19T13:03:50.760Z,95196.81
2019-05-19T13:05:05.115Z,95202.00
2019-05-19T13:06:07.748Z,95194.22
2019-05-19T13:07:15.816Z,95192.47
2019-05-19T13:08:23.045Z,95200.30
2019-05-19T13:09:31.017Z,95189.01
2019-05-19T13:10:38.243Z,95188.94
2019-05-19T13:11:46.204Z,95190.95
2019-05-19T13:12:53.429Z,95196.68
2019-05-19T13:14:01.437Z,95190.12
2019-05-19T13:15:09.416Z,95185.44
2019-05-19T13:16:17.403Z,95184.99
2019-05-19T13:17:24.679Z,95185.63